createdAt,value
2023-04-02T07:56:01.419Z,22.9420
2023-04-02T07:57:03.368Z,22.7447
2023-04-02T07:58:05.164Z,22.7204
2023-04-02T07:59:07.067Z,22.7056
2023-04-02T08:00:58.267Z,22.8799
2023-04-02T08:07:21.010Z,23.4098
2023-04-02T08:08:22.905Z,22.9312
2023-04-02T08:09:24.810Z,22.6285
2023-04-02T08:10:26.718Z,22.4511
2023-04-02T08:11:29.758Z,22.3698
2023-04-02T08:12:30.543Z,22.3216
2023-04-02T08:13:32.456Z,22.3069
2023-04-02T08:14:34.368Z,22.3141
2023-04-02T08:15:36.620Z,22.3802
2023-04-02T08:16:38.225Z,22.4403
2023-04-02T08:17:40.081Z,22.4934
2023-04-02T08:18:42.071Z,22.5240
2023-04-02T08:19:54.218Z,22.5422
2023-04-02T08:20:45.816Z,22.5463
2023-04-02T08:21:47.739Z,22.5604
2023-04-02T08:22:49.660Z,22.5767
2023-04-02T08:23:51.538Z,22.5874
2023-04-02T08:24:53.469Z,22.5944
2023-04-02T08:25:55.352Z,22.6071
2023-04-02T08:26:57.273Z,22.6255
2023-04-02T08:27:59.174Z,22.6353
2023-04-02T08:29:01.110Z,22.6422
2023-04-02T08:30:02.994Z,22.6506
2023-04-02T08:31:05.054Z,22.6579
2023-04-02T08:32:06.794Z,22.6745
2023-04-02T08:33:08.778Z,22.6888
2023-04-02T08:34:10.633Z,22.7138
2023-04-02T08:35:13.685Z,22.7939
2023-04-02T08:36:14.488Z,22.8178
2023-04-02T08:37:16.359Z,22.8391
2023-04-02T08:38:18.253Z,22.8666
2023-04-02T08:39:20.187Z,22.8863
2023-04-02T08:40:22.085Z,22.9211
2023-04-02T08:41:24.008Z,22.9111
2023-04-02T08:42:25.930Z,22.6486
2023-04-02T08:43:27.882Z,22.4559
2023-04-02T08:44:29.707Z,22.2815
2023-04-02T08:45:31.647Z,22.1204
2023-04-02T08:46:33.539Z,22.0234
2023-04-02T08:47:35.472Z,21.9673
2023-04-02T08:48:37.326Z,21.9010
2023-04-02T08:49:39.329Z,21.7351
2023-04-02T08:50:41.145Z,21.5781
2023-04-02T08:51:43.101Z,21.4478
2023-04-02T08:52:44.953Z,21.3811
2023-04-02T08:53:46.879Z,21.1991
2023-04-02T08:54:48.759Z,21.0354
2023-04-02T08:55:50.682Z,20.9082
2023-04-02T08:56:52.621Z,20.7120
2023-04-02T08:57:54.507Z,20.6209
2023-04-02T08:58:56.440Z,20.7967
2023-04-02T08:59:58.337Z,21.0303
2023-04-02T09:01:00.225Z,21.2295
2023-04-02T09:02:02.268Z,21.3943
2023-04-02T09:03:04.061Z,21.5172
2023-04-02T09:04:05.953Z,21.6238
2023-04-02T09:05:08.020Z,21.7008
2023-04-02T09:06:10.781Z,21.7565
2023-04-02T09:07:11.670Z,21.8046
2023-04-02T09:08:13.594Z,21.8570
2023-04-02T09:09:15.468Z,21.9046
2023-04-02T09:10:17.432Z,21.9467
2023-04-02T09:11:19.312Z,21.9789
2023-04-02T09:12:21.215Z,22.0026
2023-04-02T09:13:23.102Z,22.0291
2023-04-02T09:14:25.021Z,22.0471
2023-04-02T09:15:26.918Z,22.0616
2023-04-02T09:16:28.938Z,22.0784
2023-04-02T09:17:36.913Z,22.1010
2023-04-02T09:18:32.665Z,22.1148
2023-04-02T09:19:34.545Z,22.1361
2023-04-02T09:20:36.473Z,22.1488
2023-04-02T09:21:38.379Z,22.1662
2023-04-02T09:22:40.284Z,22.1807
2023-04-02T09:23:42.168Z,22.1998
2023-04-02T09:24:44.106Z,22.2188
2023-04-02T09:25:54.125Z,22.2277
2023-04-02T09:26:47.915Z,22.2264
2023-04-02T09:27:49.799Z,22.2357
2023-04-02T09:28:51.735Z,22.2608
2023-04-02T09:29:53.625Z,22.2720
2023-04-02T09:30:55.552Z,22.2889
2023-04-02T09:31:57.480Z,22.2957
2023-04-02T09:32:59.398Z,22.2914
2023-04-02T09:34:01.260Z,22.2946
2023-04-02T09:35:07.465Z,22.3060
2023-04-02T09:36:05.098Z,22.3117
2023-04-02T09:37:07.018Z,22.3225
2023-04-02T09:38:08.879Z,22.3336
2023-04-02T09:39:10.815Z,22.3502
2023-04-02T09:40:12.704Z,22.3520
2023-04-02T09:41:14.643Z,22.3693
2023-04-02T09:42:16.554Z,22.3855
2023-04-02T09:43:18.954Z,22.3873
2023-04-02T09:44:20.336Z,22.3875
2023-04-02T09:45:22.306Z,22.3947
2023-04-02T09:46:24.270Z,22.3948
2023-04-02T09:47:26.130Z,22.4012
2023-04-02T09:48:27.977Z,22.4078
2023-04-02T09:49:29.930Z,22.4099
2023-04-02T09:50:31.808Z,22.4115
2023-04-02T09:51:33.745Z,22.4215
2023-04-02T09:52:35.616Z,22.4245
2023-04-02T09:53:37.552Z,22.4331
2023-04-02T09:54:39.434Z,22.4415
2023-04-02T09:55:41.356Z,22.4465
2023-04-02T09:56:43.274Z,22.4582
2023-04-02T09:57:45.185Z,22.4677
2023-04-02T09:58:47.080Z,22.4710
2023-04-02T09:59:49.017Z,22.4759
2023-04-02T10:00:50.914Z,22.4903
2023-04-02T10:01:52.835Z,22.4928
2023-04-02T10:02:54.754Z,22.4930
2023-04-02T10:03:56.720Z,22.4974
2023-04-02T10:04:58.521Z,22.4958
2023-04-02T10:06:00.489Z,22.5009
2023-04-02T10:07:02.358Z,22.5055
2023-04-02T10:08:04.280Z,22.5052
2023-04-02T10:09:06.158Z,22.5053
2023-04-02T10:10:08.076Z,22.5035
2023-04-02T10:11:10.002Z,22.5014
2023-04-02T10:12:11.891Z,22.5052
2023-04-02T10:13:13.810Z,22.5190
2023-04-02T10:14:15.749Z,22.5242
2023-04-02T10:15:17.617Z,22.5269
2023-04-02T10:16:19.637Z,22.5369
2023-04-02T10:17:22.484Z,22.5524
2023-04-02T10:18:23.368Z,22.5580
2023-04-02T10:19:25.261Z,22.5730
2023-04-02T10:20:27.201Z,22.5849
2023-04-02T10:21:29.067Z,22.5950
2023-04-02T10:22:30.992Z,22.6055
2023-04-02T10:23:32.880Z,22.6106
2023-04-02T10:24:34.812Z,22.6027
2023-04-02T10:25:36.903Z,22.6167
2023-04-02T10:26:38.636Z,22.6280
2023-04-02T10:27:40.534Z,22.6280
2023-04-02T10:28:42.451Z,22.6364
2023-04-02T10:29:44.339Z,22.6444
2023-04-02T10:30:46.372Z,22.6450
2023-04-02T10:31:48.150Z,22.6406
2023-04-02T10:32:50.124Z,22.6339
2023-04-02T10:33:51.973Z,22.6294
2023-04-02T10:34:53.933Z,22.6240
2023-04-02T10:35:55.812Z,22.6258
2023-04-02T10:36:57.741Z,22.6295
2023-04-02T10:37:59.608Z,22.6377
2023-04-02T10:39:01.539Z,22.6404
2023-04-02T10:40:03.428Z,22.6568
2023-04-02T10:41:05.352Z,22.6668
2023-04-02T10:42:07.241Z,22.6763
2023-04-02T10:43:09.171Z,22.6860
2023-04-02T10:44:19.603Z,22.6956
2023-04-02T10:45:12.984Z,22.6942
2023-04-02T10:46:14.906Z,22.7032
2023-04-02T10:47:16.826Z,22.7025
2023-04-02T10:48:18.694Z,22.7015
2023-04-02T10:49:20.676Z,22.7092
2023-04-02T10:50:22.524Z,22.7192
2023-04-02T10:51:24.452Z,22.7255
2023-04-02T10:52:26.417Z,22.7264
2023-04-02T10:53:28.274Z,22.7244
2023-04-02T10:54:30.165Z,22.7346
2023-04-02T10:55:32.086Z,22.7449
2023-04-02T10:56:44.042Z,22.7604
2023-04-02T10:57:36.027Z,22.7614
2023-04-02T10:58:37.784Z,22.7677
2023-04-02T10:59:39.712Z,22.7726
2023-04-02T11:00:41.601Z,22.7730
2023-04-02T11:01:43.591Z,22.7794
2023-04-02T11:02:45.500Z,22.7904
2023-04-02T11:03:47.455Z,22.8009
2023-04-02T11:04:49.251Z,22.8047
2023-04-02T11:05:51.182Z,22.8109
2023-04-02T11:06:58.096Z,22.8193
2023-04-02T11:07:54.999Z,22.8180
2023-04-02T11:08:56.885Z,22.8221
2023-04-02T11:09:58.799Z,22.8241
2023-04-02T11:11:01.822Z,22.8318
2023-04-02T11:12:02.652Z,22.8326
2023-04-02T11:13:04.537Z,22.8410
2023-04-02T11:14:06.749Z,22.8464
2023-04-02T11:15:08.341Z,22.8492
2023-04-02T11:16:10.275Z,22.8566
2023-04-02T11:17:12.141Z,22.8614
2023-04-02T11:18:14.094Z,22.8695
2023-04-02T11:19:15.996Z,22.8813
2023-04-02T11:20:17.909Z,22.8867
2023-04-02T11:21:19.807Z,22.8877
2023-04-02T11:22:21.713Z,22.8878
2023-04-02T11:23:23.668Z,22.8885
2023-04-02T11:24:25.550Z,22.8961
2023-04-02T11:25:27.425Z,22.8958
2023-04-02T11:26:29.371Z,22.8927
2023-04-02T11:27:31.265Z,22.8938
2023-04-02T11:28:33.169Z,22.8999
2023-04-02T11:29:35.383Z,22.9094
2023-04-02T11:30:36.999Z,22.9132
2023-04-02T11:31:38.960Z,22.9178
2023-04-02T11:32:40.818Z,22.9222
2023-04-02T11:33:45.370Z,22.9260
2023-04-02T11:34:44.623Z,22.9273
2023-04-02T11:35:46.603Z,22.9318
2023-04-02T11:36:48.437Z,22.9372
2023-04-02T11:37:52.340Z,22.9371
2023-04-02T11:38:53.342Z,22.9325
2023-04-02T11:39:54.140Z,22.9269
2023-04-02T11:40:56.072Z,22.9362
2023-04-02T11:41:57.984Z,22.9497
2023-04-02T11:42:59.903Z,22.9527
2023-04-02T11:44:01.771Z,22.9498
2023-04-02T11:45:03.705Z,22.9502
2023-04-02T11:46:05.618Z,22.9535
2023-04-02T11:47:07.537Z,22.9541
2023-04-02T11:48:09.431Z,22.9543
2023-04-02T11:49:11.344Z,22.9559
2023-04-02T11:50:13.226Z,22.9572
2023-04-02T11:51:15.162Z,22.9558
2023-04-02T11:52:17.045Z,22.9576
2023-04-02T11:53:19.008Z,22.9646
2023-04-02T11:54:20.880Z,22.9739
2023-04-02T11:55:22.818Z,22.9865
2023-04-02T11:56:24.708Z,22.9951
2023-04-02T11:57:26.690Z,22.9968
2023-04-02T11:58:28.501Z,23.0005
2023-04-02T11:59:30.454Z,23.0037
2023-04-02T12:00:32.344Z,23.0085
2023-04-02T12:01:34.261Z,23.0137
2023-04-02T12:02:36.206Z,23.0215
2023-04-02T12:03:38.081Z,23.0307
2023-04-02T12:04:39.980Z,23.0373
2023-04-02T12:05:41.992Z,23.0280
2023-04-02T12:06:43.792Z,23.0255
2023-04-02T12:07:45.707Z,23.0305
2023-04-02T12:08:57.156Z,23.0389
2023-04-02T12:09:49.607Z,23.0415
2023-04-02T12:10:51.485Z,23.0463
2023-04-02T12:11:53.422Z,23.0504
2023-04-02T12:12:55.297Z,23.0558
2023-04-02T12:13:57.241Z,23.0657
2023-04-02T12:14:59.144Z,23.0729
2023-04-02T12:16:01.069Z,23.0804
2023-04-02T12:17:02.996Z,23.0792
2023-04-02T12:18:04.889Z,23.0865
2023-04-02T12:19:06.755Z,23.0924
2023-04-02T12:20:08.731Z,23.0853
2023-04-02T12:21:10.585Z,23.0758
2023-04-02T12:22:12.502Z,23.0686
2023-04-02T12:23:14.393Z,23.0680
2023-04-02T12:24:16.319Z,23.0665
2023-04-02T12:25:18.215Z,23.0713
2023-04-02T12:26:21.473Z,23.0784
2023-04-02T12:27:23.046Z,23.0859
2023-04-02T12:28:23.962Z,23.0916
2023-04-02T12:29:25.835Z,23.0936
2023-04-02T12:30:27.770Z,23.0927
2023-04-02T12:31:29.775Z,23.1021
2023-04-02T12:32:31.621Z,23.1151
2023-04-02T12:33:33.517Z,23.1269
2023-04-02T12:34:35.380Z,23.1376
2023-04-02T12:35:37.316Z,23.1345
2023-04-02T12:36:39.206Z,23.1200
2023-04-02T12:37:41.149Z,23.1122
2023-04-02T12:38:43.008Z,23.1106
2023-04-02T12:39:44.932Z,23.1177
2023-04-02T12:40:46.870Z,23.1258
2023-04-02T12:41:48.755Z,23.1678
2023-04-02T12:42:50.636Z,23.1844
2023-04-02T12:43:52.568Z,23.2017
2023-04-02T12:44:54.461Z,23.2135
2023-04-02T12:45:56.414Z,23.2206
2023-04-02T12:46:58.285Z,23.2324
2023-04-02T12:48:00.241Z,23.2365
2023-04-02T12:49:02.083Z,23.2398
2023-04-02T12:50:04.020Z,23.2478
2023-04-02T12:51:05.927Z,23.2659
2023-04-02T12:52:07.876Z,23.2819
2023-04-02T12:53:09.712Z,23.2981
2023-04-02T12:54:11.669Z,23.3089
2023-04-02T12:55:13.582Z,23.3110
2023-04-02T12:56:15.509Z,23.3099
2023-04-02T12:57:17.391Z,23.3393
2023-04-02T12:58:19.269Z,23.3946
2023-04-02T12:59:21.156Z,23.3931
2023-04-02T13:00:23.101Z,23.3882
2023-04-02T13:01:25.603Z,23.3865
2023-04-02T13:02:27.120Z,23.3848
2023-04-02T13:03:29.239Z,23.3862
2023-04-02T13:04:30.770Z,23.3945
2023-04-02T13:05:32.694Z,23.3878
2023-04-02T13:06:34.604Z,23.3787
2023-04-02T13:07:36.537Z,23.3672
2023-04-02T13:08:38.407Z,23.3544
2023-04-02T13:09:40.309Z,23.3480
2023-04-02T13:10:42.244Z,23.3438
2023-04-02T13:11:44.145Z,23.3380
2023-04-02T13:12:46.073Z,23.3331
2023-04-02T13:13:47.922Z,23.3283
2023-04-02T13:14:49.853Z,23.3288
2023-04-02T13:15:51.798Z,23.3397
2023-04-02T13:16:53.706Z,23.3407
2023-04-02T13:17:55.613Z,23.3490
2023-04-02T13:18:57.486Z,23.3507
2023-04-02T13:19:59.483Z,23.3501
2023-04-02T13:21:01.295Z,23.3462
2023-04-02T13:22:03.219Z,23.3474
2023-04-02T13:23:05.121Z,23.3528
2023-04-02T13:24:07.028Z,23.3523
2023-04-02T13:25:08.922Z,23.3548
2023-04-02T13:26:10.812Z,23.3499
2023-04-02T13:27:12.746Z,23.3460
2023-04-02T13:28:14.640Z,23.3462
2023-04-02T13:29:16.559Z,23.3440
2023-04-02T13:30:18.456Z,23.3414
2023-04-02T13:31:20.416Z,23.3404
2023-04-02T13:32:22.295Z,23.3413
2023-04-02T13:33:24.212Z,23.3448
2023-04-02T13:34:26.076Z,23.3478
2023-04-02T13:35:28.003Z,23.3513
2023-04-02T13:36:29.891Z,23.3532
2023-04-02T13:37:31.859Z,23.3569
2023-04-02T13:38:33.693Z,23.3575
2023-04-02T13:39:35.713Z,23.3592
2023-04-02T13:40:37.833Z,23.3613
2023-04-02T13:41:39.427Z,23.3655
2023-04-02T13:42:41.349Z,23.3724
2023-04-02T13:43:43.247Z,23.3703
2023-04-02T13:44:45.126Z,23.3699
2023-04-02T13:45:47.125Z,23.3773
2023-04-02T13:46:48.934Z,23.3825
2023-04-02T13:47:50.906Z,23.3886
2023-04-02T13:48:52.778Z,23.3928
2023-04-02T13:49:54.684Z,23.4009
2023-04-02T13:50:56.586Z,23.4034
2023-04-02T13:51:58.574Z,23.4029
2023-04-02T13:53:01.015Z,23.4011
2023-04-02T13:54:06.759Z,23.4034
2023-04-02T13:55:04.339Z,23.4079
2023-04-02T13:56:06.098Z,23.4170
2023-04-02T13:57:08.004Z,23.4265
2023-04-02T13:58:09.902Z,23.4329
2023-04-02T13:59:11.797Z,23.4357
2023-04-02T14:00:13.752Z,23.4387
2023-04-02T14:01:15.691Z,23.4433
2023-04-02T14:02:17.766Z,23.4466
2023-04-02T14:03:19.493Z,23.4482
2023-04-02T14:04:21.453Z,23.4539
2023-04-02T14:05:23.249Z,23.4583
2023-04-02T14:06:25.518Z,23.4645
2023-04-02T14:07:27.080Z,23.4614
2023-04-02T14:08:30.249Z,23.4509
2023-04-02T14:09:30.883Z,23.4424
2023-04-02T14:10:34.618Z,23.4428
2023-04-02T14:11:34.699Z,23.4444
2023-04-02T14:12:36.655Z,23.4461
2023-04-02T14:13:38.508Z,23.4398
2023-04-02T14:14:40.772Z,23.4494
2023-04-02T14:15:42.338Z,23.4595
2023-04-02T14:16:44.286Z,23.4648
2023-04-02T14:17:46.199Z,23.4639
2023-04-02T14:18:48.058Z,23.4587
2023-04-02T14:19:49.954Z,23.4541
2023-04-02T14:20:51.930Z,23.4609
2023-04-02T14:21:54.331Z,23.4663
2023-04-02T14:22:55.705Z,23.4669
2023-04-02T14:23:57.578Z,23.4675
2023-04-02T14:24:59.522Z,23.4705
2023-04-02T14:26:01.416Z,23.4754
2023-04-02T14:27:04.296Z,23.4767
2023-04-02T14:28:05.275Z,23.4798
2023-04-02T14:29:07.165Z,23.4757
2023-04-02T14:30:09.089Z,23.4750
2023-04-02T14:31:11.021Z,23.4726
2023-04-02T14:32:14.404Z,23.4733
2023-04-02T14:33:14.926Z,23.4720
2023-04-02T14:34:16.665Z,23.4754
2023-04-02T14:35:18.611Z,23.4762
2023-04-02T14:36:20.459Z,23.4737
2023-04-02T14:37:22.400Z,23.4582
2023-04-02T14:38:24.472Z,23.4649
2023-04-02T14:39:26.252Z,23.4654
2023-04-02T14:40:28.126Z,23.4597
2023-04-02T14:41:30.077Z,23.4568
2023-04-02T14:42:32.009Z,23.4533
2023-04-02T14:43:33.899Z,23.4490
2023-04-02T14:44:35.761Z,23.4454
2023-04-02T14:45:37.720Z,23.4457
2023-04-02T14:46:39.657Z,23.4501
2023-04-02T14:47:41.542Z,23.4515
2023-04-02T14:48:43.426Z,23.4499
2023-04-02T14:49:45.374Z,23.4484
2023-04-02T14:50:47.726Z,23.4525
2023-04-02T14:51:49.117Z,23.4534
2023-04-02T14:52:51.055Z,23.4536
2023-04-02T14:53:53.006Z,23.4510
2023-04-02T14:54:54.976Z,23.4438
2023-04-02T14:55:56.754Z,23.4429
2023-04-02T14:56:58.783Z,23.4443
2023-04-02T14:58:00.597Z,23.4428
2023-04-02T14:59:03.508Z,23.4425
2023-04-02T15:00:04.405Z,23.4382
2023-04-02T15:01:06.317Z,23.4403
2023-04-02T15:02:08.248Z,23.4414
2023-04-02T15:03:10.191Z,23.4423
2023-04-02T15:04:12.015Z,23.4450
2023-04-02T15:05:13.945Z,23.4463
2023-04-02T15:06:15.880Z,23.4428
2023-04-02T15:07:17.778Z,23.4381
2023-04-02T15:08:19.675Z,23.4387
2023-04-02T15:09:21.591Z,23.4447
2023-04-02T15:10:23.476Z,23.4459
2023-04-02T15:11:27.576Z,23.4392
2023-04-02T15:12:27.268Z,23.4301
2023-04-02T15:13:29.188Z,23.4260
2023-04-02T15:14:31.095Z,23.4246
2023-04-02T15:15:39.278Z,23.4192
2023-04-02T15:16:35.772Z,23.4068
2023-04-02T15:17:36.850Z,23.4114
2023-04-02T15:18:39.743Z,23.4178
2023-04-02T15:19:40.679Z,23.4163
2023-04-02T15:20:42.696Z,23.4155
2023-04-02T15:21:55.621Z,23.4147
2023-04-02T15:22:46.379Z,23.4033
2023-04-02T15:23:48.447Z,23.4003
2023-04-02T15:24:50.195Z,23.3976
2023-04-02T15:25:52.068Z,23.3995
2023-04-02T15:26:53.995Z,23.3980
2023-04-02T15:27:55.856Z,23.3955
2023-04-02T15:28:57.827Z,23.3957
2023-04-02T15:29:59.684Z,23.3953
2023-04-02T15:31:01.612Z,23.3932
2023-04-02T15:32:03.508Z,23.3874
2023-04-02T15:33:05.455Z,23.3823
2023-04-02T15:34:07.303Z,23.3818
2023-04-02T15:35:09.227Z,23.3816
2023-04-02T15:36:11.168Z,23.3801
2023-04-02T15:37:13.100Z,23.3709
2023-04-02T15:38:14.940Z,23.3711
2023-04-02T15:39:16.872Z,23.3706
2023-04-02T15:40:18.740Z,23.3707
2023-04-02T15:41:22.975Z,23.3720
2023-04-02T15:42:22.583Z,23.3631
2023-04-02T15:43:24.492Z,23.3566
2023-04-02T15:44:26.376Z,23.3529
2023-04-02T15:45:29.582Z,23.3493
2023-04-02T15:46:30.299Z,23.3455
2023-04-02T15:47:32.622Z,23.3431
2023-04-02T15:48:34.162Z,23.3421
2023-04-02T15:49:35.962Z,23.3364
2023-04-02T15:50:38.382Z,23.3281
2023-04-02T15:51:39.734Z,23.3207
2023-04-02T15:52:41.641Z,23.3152
2023-04-02T15:53:43.566Z,23.3166
2023-04-02T15:54:45.473Z,23.3119
2023-04-02T15:55:47.386Z,23.3084
2023-04-02T15:56:49.355Z,23.3064
2023-04-02T15:57:51.183Z,23.3056
2023-04-02T15:58:53.088Z,23.3038
2023-04-02T15:59:55.077Z,23.2993
2023-04-02T16:00:56.933Z,23.2939
2023-04-02T16:01:58.860Z,23.2933
2023-04-02T16:03:00.756Z,23.2920
2023-04-02T16:04:02.720Z,23.2913
2023-04-02T16:05:04.540Z,23.2892
2023-04-02T16:06:07.268Z,23.2896
2023-04-02T16:07:08.474Z,23.2886
2023-04-02T16:08:10.431Z,23.2854
2023-04-02T16:09:12.846Z,23.2816
2023-04-02T16:10:14.190Z,23.2748
2023-04-02T16:11:16.158Z,23.2733
2023-04-02T16:12:17.986Z,23.2744
2023-04-02T16:13:19.781Z,23.2721
2023-04-02T16:14:21.767Z,23.2718
2023-04-02T16:15:24.035Z,23.2696
2023-04-02T16:16:25.814Z,23.2662
2023-04-02T16:17:27.652Z,23.2663
2023-04-02T16:18:29.385Z,23.2648
2023-04-02T16:19:31.289Z,23.2643
2023-04-02T16:20:33.453Z,23.2595
2023-04-02T16:21:35.218Z,23.2581
2023-04-02T16:22:38.027Z,23.2603
2023-04-02T16:23:39.081Z,23.2592
2023-04-02T16:24:40.827Z,23.2588
2023-04-02T16:25:42.826Z,23.2545
2023-04-02T16:26:44.651Z,23.2511
2023-04-02T16:27:46.668Z,23.2485
2023-04-02T16:28:48.478Z,23.2461
2023-04-02T16:29:54.201Z,23.2458
2023-04-02T16:30:52.331Z,23.2350
2023-04-02T16:31:54.196Z,23.2298
2023-04-02T16:32:56.227Z,23.2265
2023-04-02T16:33:58.714Z,23.2235
2023-04-02T16:35:15.232Z,23.2210
2023-04-02T16:36:02.894Z,23.2119
2023-04-02T16:37:03.724Z,23.2113
2023-04-02T16:38:05.597Z,23.2106
2023-04-02T16:39:07.536Z,23.2111
2023-04-02T16:40:09.447Z,23.2143
2023-04-02T16:41:11.397Z,23.2121
2023-04-02T16:42:13.227Z,23.2097
2023-04-02T16:43:15.161Z,23.2091
2023-04-02T16:44:17.040Z,23.2075
2023-04-02T16:45:19.356Z,23.2000
2023-04-02T16:46:31.682Z,23.1978
2023-04-02T16:47:22.830Z,23.1932
2023-04-02T16:48:24.685Z,23.1971
2023-04-02T16:49:26.617Z,23.1900
2023-04-02T16:50:28.479Z,23.1836
2023-04-02T16:51:30.403Z,23.1830
2023-04-02T16:52:32.292Z,23.1822
2023-04-02T16:53:34.228Z,23.1802
2023-04-02T16:54:36.121Z,23.1731
2023-04-02T16:55:38.014Z,23.1664
2023-04-02T16:56:39.930Z,23.1648
2023-04-02T16:57:41.843Z,23.1662
2023-04-02T16:58:43.762Z,23.1663
2023-04-02T16:59:45.681Z,23.1665
2023-04-02T17:00:47.567Z,23.1669
2023-04-02T17:01:49.490Z,23.1697
2023-04-02T17:02:51.410Z,23.1591
2023-04-02T17:03:53.557Z,23.1526
2023-04-02T17:04:55.171Z,23.1502
2023-04-02T17:05:57.112Z,23.1461
2023-04-02T17:06:59.278Z,23.1367
2023-04-02T17:08:00.900Z,23.1312
2023-04-02T17:09:02.801Z,23.1305
2023-04-02T17:10:04.693Z,23.1330
2023-04-02T17:11:06.727Z,23.1319
2023-04-02T17:12:08.595Z,23.1214
2023-04-02T17:13:10.456Z,23.1140
2023-04-02T17:14:12.395Z,23.1114
2023-04-02T17:15:20.951Z,23.1174
2023-04-02T17:16:16.154Z,23.1084
2023-04-02T17:17:18.057Z,23.1067
2023-04-02T17:18:20.162Z,23.1142
2023-04-02T17:19:21.880Z,23.1206
2023-04-02T17:20:23.749Z,23.1181
2023-04-02T17:21:25.680Z,23.1076
2023-04-02T17:22:27.571Z,23.0968
2023-04-02T17:23:29.488Z,23.1004
2023-04-02T17:24:31.374Z,23.1064
2023-04-02T17:25:33.301Z,23.1013
2023-04-02T17:26:35.190Z,23.0986
2023-04-02T17:27:37.123Z,23.1020
2023-04-02T17:28:39.011Z,23.1011
2023-04-02T17:29:40.970Z,23.0969
2023-04-02T17:30:42.809Z,23.1200
2023-04-02T17:31:44.770Z,23.1264
2023-04-02T17:32:46.721Z,23.1294
2023-04-02T17:33:48.557Z,23.1274
2023-04-02T17:34:50.436Z,23.1139
2023-04-02T17:35:52.392Z,23.1091
2023-04-02T17:36:55.247Z,23.1019
2023-04-02T17:37:56.195Z,23.1048
2023-04-02T17:38:58.191Z,23.1048
2023-04-02T17:39:59.975Z,23.0983
2023-04-02T17:41:01.856Z,23.0934
2023-04-02T17:42:04.035Z,23.0879
2023-04-02T17:43:05.723Z,23.0799
2023-04-02T17:44:07.790Z,23.0816
2023-04-02T17:45:09.497Z,23.0763
2023-04-02T17:46:11.551Z,23.0707
2023-04-02T17:47:14.385Z,23.0584
2023-04-02T17:48:16.370Z,23.0357
2023-04-02T17:49:17.317Z,23.0303
2023-04-02T17:50:19.078Z,23.0362
2023-04-02T17:51:20.982Z,23.0561
2023-04-02T17:52:22.915Z,23.0784
2023-04-02T17:53:24.760Z,23.0831
2023-04-02T17:54:26.898Z,23.1033
2023-04-02T17:55:28.561Z,23.1186
2023-04-02T17:56:30.988Z,23.1280
2023-04-02T17:57:32.861Z,23.1314
2023-04-02T17:58:34.299Z,23.1355
2023-04-02T17:59:36.205Z,23.1356
2023-04-02T18:00:38.821Z,23.1343
2023-04-02T18:01:40.098Z,23.1407
2023-04-02T18:02:42.041Z,23.1449
2023-04-02T18:03:43.867Z,23.1504
2023-04-02T18:04:45.894Z,23.1512
2023-04-02T18:05:47.757Z,23.1509
2023-04-02T18:06:49.550Z,23.1538
2023-04-02T18:07:51.599Z,23.1495
2023-04-02T18:08:53.343Z,23.1286
2023-04-02T18:09:55.227Z,23.1255
2023-04-02T18:10:57.206Z,23.1409
2023-04-02T18:12:00.534Z,23.1500
2023-04-02T18:23:41.598Z,25.2390
2023-04-02T18:24:43.518Z,25.3183
